Time,TemperatureF,DewpointF,PressureIn,WindDirection,WindDirectionDegrees,WindSpeedMPH,WindSpeedGustMPH,Humidity,HourlyPrecipIn,Conditions,Clouds,dailyrainin,SoftwareType,DateUTC
2013-01-23 09:04:00,29.0,-99.9,-100.00,North,-999,-999.0,-999.0,-999,-99.99,,,-99.99,,2013-01-23 17:04:00,
2013-01-23 09:13:00,29.0,-99.9,-100.00,North,-999,-999.0,-999.0,-999,-99.99,,,-99.99,,2013-01-23 17:13:00,
2013-01-23 09:23:00,29.0,-99.9,-100.00,North,-999,-999.0,-999.0,-999,-99.99,,,-99.99,,2013-01-23 17:23:00,
2013-01-23 10:03:00,48.0,8.0,-100.00,SW,220,2.0,11.0,19,-99.99,,,0.00,,2013-01-23 18:03:00,
2013-01-23 10:32:00,48.0,8.0,-100.00,SW,220,2.0,11.0,19,-99.99,,,0.00,,2013-01-23 18:32:00,
2013-01-23 11:02:00,54.0,11.0,-100.00,North,350,3.0,17.0,18,0.00,,,0.00,,2013-01-23 19:02:00,
2013-01-23 12:03:00,50.0,7.0,-100.00,North,357,6.0,17.0,17,0.00,,,0.00,,2013-01-23 20:03:00,
2013-01-23 12:12:00,50.0,7.0,-100.00,North,357,6.0,17.0,17,0.00,,,0.00,,2013-01-23 20:12:00,
2013-01-23 12:22:00,50.0,7.0,-100.00,North,357,6.0,17.0,17,0.00,,,0.00,,2013-01-23 20:22:00,
2013-01-23 12:32:00,50.0,7.0,-100.00,North,357,6.0,17.0,17,0.00,,,0.00,,2013-01-23 20:32:00,
2013-01-23 12:53:00,54.0,14.0,-100.00,NE,47,3.0,16.0,20,0.00,,,0.00,,2013-01-23 20:53:00,
2013-01-23 13:02:00,54.0,14.0,-100.00,NE,47,3.0,16.0,20,0.00,,,0.00,,2013-01-23 21:02:00,
2013-01-23 13:12:00,54.0,14.0,-100.00,NE,47,3.0,16.0,20,0.00,,,0.00,,2013-01-23 21:12:00,
2013-01-23 13:22:00,54.0,14.0,-100.00,NE,47,3.0,16.0,20,0.00,,,0.00,,2013-01-23 21:22:00,
2013-01-23 13:33:00,54.0,14.0,-100.00,NE,47,3.0,16.0,20,0.00,,,0.00,,2013-01-23 21:33:00,
2013-01-23 13:53:00,49.0,14.0,-100.00,SSW,208,5.0,24.0,24,0.00,,,0.00,,2013-01-23 21:53:00,
2013-01-23 14:02:00,49.0,14.0,-100.00,SSW,208,5.0,24.0,24,0.00,,,0.00,,2013-01-23 22:02:00,
2013-01-23 14:12:00,49.0,14.0,-100.00,SSW,208,5.0,24.0,24,0.00,,,0.00,,2013-01-23 22:12:00,
2013-01-23 14:22:00,49.0,14.0,-100.00,SSW,208,5.0,24.0,24,0.00,,,0.00,,2013-01-23 22:22:00,
2013-01-23 14:33:00,49.0,14.0,-100.00,SSW,208,5.0,24.0,24,0.00,,,0.00,,2013-01-23 22:33:00,
2013-01-23 15:03:00,46.0,12.0,-100.00,NNW,335,5.0,22.0,25,0.00,,,0.00,,2013-01-23 23:03:00,
2013-01-23 15:12:00,46.0,12.0,-100.00,NNW,335,5.0,22.0,25,0.00,,,0.00,,2013-01-23 23:12:00,
2013-01-23 15:22:00,46.0,12.0,-100.00,NNW,335,5.0,22.0,25,0.00,,,0.00,,2013-01-23 23:22:00,
2013-01-23 15:33:00,46.0,12.0,-100.00,NNW,335,5.0,22.0,25,0.00,,,0.00,,2013-01-23 23:33:00,
2013-01-23 16:03:00,46.0,13.0,-100.00,SSW,211,4.0,17.0,26,0.00,,,0.00,,2013-01-24 00:03:00,
2013-01-23 16:12:00,46.0,13.0,-100.00,SSW,211,4.0,17.0,26,0.00,,,0.00,,2013-01-24 00:12:00,
2013-01-23 16:22:00,46.0,13.0,-100.00,SSW,211,4.0,17.0,26,0.00,,,0.00,,2013-01-24 00:22:00,
2013-01-23 16:32:00,46.0,13.0,-100.00,SSW,211,4.0,17.0,26,0.00,,,0.00,,2013-01-24 00:32:00,
2013-01-23 17:02:00,42.0,14.0,-100.00,SW,231,3.0,13.0,31,0.00,,,0.00,,2013-01-24 01:02:00,
2013-01-23 17:12:00,42.0,14.0,-100.00,SW,231,3.0,13.0,31,0.00,,,0.00,,2013-01-24 01:12:00,
2013-01-23 17:22:00,42.0,14.0,-100.00,SW,231,3.0,13.0,31,0.00,,,0.00,,2013-01-24 01:22:00,
2013-01-23 17:32:00,42.0,14.0,-100.00,SW,231,3.0,13.0,31,0.00,,,0.00,,2013-01-24 01:32:00,
2013-01-23 18:02:00,42.0,16.0,-100.00,SW,225,3.0,12.0,35,0.00,,,0.00,,2013-01-24 02:02:00,
2013-01-23 18:12:00,42.0,16.0,-100.00,SW,225,3.0,12.0,35,0.00,,,0.00,,2013-01-24 02:12:00,
2013-01-23 18:22:00,42.0,16.0,-100.00,SW,225,3.0,12.0,35,0.00,,,0.00,,2013-01-24 02:22:00,
2013-01-23 18:32:00,42.0,16.0,-100.00,SW,225,3.0,12.0,35,0.00,,,0.00,,2013-01-24 02:32:00,
2013-01-23 19:02:00,39.0,17.0,-100.00,SW,218,4.0,17.0,40,0.00,,,0.00,,2013-01-24 03:02:00,
2013-01-23 19:12:00,39.0,17.0,-100.00,SW,218,4.0,17.0,40,0.00,,,0.00,,2013-01-24 03:12:00,
2013-01-23 19:22:00,39.0,17.0,-100.00,SW,218,4.0,17.0,40,0.00,,,0.00,,2013-01-24 03:22:00,
2013-01-23 19:32:00,39.0,17.0,-100.00,SW,218,4.0,17.0,40,0.00,,,0.00,,2013-01-24 03:32:00,
2013-01-23 19:53:00,38.0,21.0,-100.00,SW,228,3.0,14.0,49,0.00,,,0.00,,2013-01-24 03:53:00,
2013-01-23 20:02:00,38.0,21.0,-100.00,SW,228,3.0,14.0,49,0.00,,,0.00,,2013-01-24 04:02:00,
2013-01-23 20:12:00,38.0,21.0,-100.00,SW,228,3.0,14.0,49,0.00,,,0.00,,2013-01-24 04:12:00,
2013-01-23 20:22:00,38.0,21.0,-100.00,SW,228,3.0,14.0,49,0.00,,,0.00,,2013-01-24 04:22:00,
2013-01-23 20:32:00,38.0,21.0,-100.00,SW,228,3.0,14.0,49,0.00,,,0.00,,2013-01-24 04:32:00,
2013-01-23 21:03:00,38.0,25.0,-100.00,SSW,213,2.0,12.0,60,0.00,,,0.00,,2013-01-24 05:03:00,
2013-01-23 21:12:00,38.0,25.0,-100.00,SSW,213,2.0,12.0,60,0.00,,,0.00,,2013-01-24 05:12:00,
2013-01-23 21:22:00,38.0,25.0,-100.00,SSW,213,2.0,12.0,60,0.00,,,0.00,,2013-01-24 05:22:00,
2013-01-23 21:32:00,38.0,25.0,-100.00,SSW,213,2.0,12.0,60,0.00,,,0.00,,2013-01-24 05:32:00,
2013-01-23 22:02:00,35.0,25.0,-100.00,ESE,119,2.0,8.0,66,0.00,,,0.00,,2013-01-24 06:02:00,
2013-01-23 22:12:00,35.0,25.0,-100.00,ESE,119,2.0,8.0,66,0.00,,,0.00,,2013-01-24 06:12:00,
2013-01-23 22:22:00,35.0,25.0,-100.00,ESE,119,2.0,8.0,66,0.00,,,0.00,,2013-01-24 06:22:00,
2013-01-23 22:32:00,35.0,25.0,-100.00,ESE,119,2.0,8.0,66,0.00,,,0.00,,2013-01-24 06:32:00,
2013-01-23 23:02:00,35.0,26.0,-100.00,NNW,344,1.0,6.0,70,0.00,,,-99.99,,2013-01-24 07:02:00,
2013-01-23 23:12:00,35.0,26.0,-100.00,NNW,344,1.0,6.0,70,0.00,,,-99.99,,2013-01-24 07:12:00,
2013-01-23 23:22:00,35.0,26.0,-100.00,NNW,344,1.0,6.0,70,0.00,,,-99.99,,2013-01-24 07:22:00,
2013-01-23 23:32:00,35.0,26.0,-100.00,NNW,344,1.0,6.0,70,0.00,,,-99.99,,2013-01-24 07:32:00,